Huvudsida
METAR-TAF:

METAR-TAF

Flygplatser :

Mendoza, Argentina

Mendoza Aerodrome

latitud: 32-50S, longitud: 068-47W, höjd: 705 m

Aktuellt väderrapport

Denna rapport gjordes för 18 timmar och 1 minuter sedan, klockan 15:00 UTC
Vind 12 kt från sydost
Temperatur 24°C
Fuktighet 47%
Tryck 1013 hPa
Sikt 10 km eller mer
Inga moln under 1 500 m eller inga cumulonimbus

METAR: SAME 201500Z 14012KT CAVOK 24/12 Q1013

Tid: 06:01 (09:01 UTC)

Väderprognos

Denna rapport gjordes för 22 timmar och 1 minuter sedan, klockan 11:00 UTC
Prognos gäller från 20 kl. 12 UTC till 21 kl. 12 UTC
Vind 10 kt från sydost
Sikt 10 km eller mer
Spridda moln på en höjd av 4000 ft

TAF: SAME 201100Z 2012/2112 14010KT 9999 SCT040 TX30/2021Z TN19/2110Z

Aktuella väderrapporter och prognoser från 4000 flygplatser (METAR- och TAF-rapporter).

De tillgängliga stationerna syns som gula och röda prickar på kartan.

För musen över prickarna för att se namnen på stationerna.

Klicka sedan för att få väderrapporter och prognoser.

För att ändra kartan: Klicka på de gröna knapparna med ett svart kors på för att zooma in; den gröna knappen med ett streck på för att zooma ut; eller på de gröna pilarna för angränsande kartor.


METAR-TAF: